sensor_id;sensor_type;location;lat;lon;timestamp;P1;durP1;ratioP1;P2;durP2;ratioP2
54613;SDS011;40514;52.758;6.360;2022-08-20T00:00:32;10.98;;;7.72;;
54613;SDS011;40514;52.758;6.360;2022-08-20T00:03:05;11.15;;;7.40;;
54613;SDS011;40514;52.758;6.360;2022-08-20T00:05:41;9.38;;;7.00;;
54613;SDS011;40514;52.758;6.360;2022-08-20T00:08:09;10.60;;;6.97;;
54613;SDS011;40514;52.758;6.360;2022-08-20T00:13:07;9.68;;;7.20;;
54613;SDS011;40514;52.758;6.360;2022-08-20T00:15:36;10.55;;;7.53;;
54613;SDS011;40514;52.758;6.360;2022-08-20T00:18:03;10.85;;;7.72;;
54613;SDS011;40514;52.758;6.360;2022-08-20T00:20:31;10.65;;;6.72;;
54613;SDS011;40514;52.758;6.360;2022-08-20T00:22:59;10.43;;;7.15;;
54613;SDS011;40514;52.758;6.360;2022-08-20T00:25:26;10.93;;;7.15;;
54613;SDS011;40514;52.758;6.360;2022-08-20T00:27:52;11.40;;;6.78;;
54613;SDS011;40514;52.758;6.360;2022-08-20T00:37:48;9.40;;;6.88;;
54613;SDS011;40514;52.758;6.360;2022-08-20T00:40:17;13.40;;;6.55;;
54613;SDS011;40514;52.758;6.360;2022-08-20T00:42:46;10.43;;;6.75;;
54613;SDS011;40514;52.758;6.360;2022-08-20T00:45:15;9.18;;;6.50;;
54613;SDS011;40514;52.758;6.360;2022-08-20T00:47:49;12.25;;;6.28;;
54613;SDS011;40514;52.758;6.360;2022-08-20T00:50:23;8.93;;;6.32;;
54613;SDS011;40514;52.758;6.360;2022-08-20T00:52:53;11.27;;;6.53;;
54613;SDS011;40514;52.758;6.360;2022-08-20T00:55:20;11.00;;;6.72;;
54613;SDS011;40514;52.758;6.360;2022-08-20T00:57:49;9.45;;;6.53;;
54613;SDS011;40514;52.758;6.360;2022-08-20T01:00:26;11.45;;;5.97;;
54613;SDS011;40514;52.758;6.360;2022-08-20T01:02:54;9.73;;;6.03;;
54613;SDS011;40514;52.758;6.360;2022-08-20T01:05:21;12.75;;;6.03;;
54613;SDS011;40514;52.758;6.360;2022-08-20T01:07:48;10.32;;;6.20;;
54613;SDS011;40514;52.758;6.360;2022-08-20T01:10:20;10.52;;;6.30;;
54613;SDS011;40514;52.758;6.360;2022-08-20T01:12:51;9.05;;;5.55;;
54613;SDS011;40514;52.758;6.360;2022-08-20T01:15:19;9.90;;;5.63;;
54613;SDS011;40514;52.758;6.360;2022-08-20T01:17:49;8.88;;;5.72;;
54613;SDS011;40514;52.758;6.360;2022-08-20T01:20:20;10.00;;;5.78;;
54613;SDS011;40514;52.758;6.360;2022-08-20T01:22:50;10.35;;;5.93;;
54613;SDS011;40514;52.758;6.360;2022-08-20T01:25:59;11.95;;;6.40;;
54613;SDS011;40514;52.758;6.360;2022-08-20T01:31:08;9.05;;;6.10;;
54613;SDS011;40514;52.758;6.360;2022-08-20T01:33:36;10.07;;;5.70;;
54613;SDS011;40514;52.758;6.360;2022-08-20T01:36:02;9.45;;;6.18;;
54613;SDS011;40514;52.758;6.360;2022-08-20T01:38:29;16.60;;;6.10;;
54613;SDS011;40514;52.758;6.360;2022-08-20T01:43:30;12.15;;;6.03;;
54613;SDS011;40514;52.758;6.360;2022-08-20T01:45:56;10.23;;;5.93;;
54613;SDS011;40514;52.758;6.360;2022-08-20T01:48:22;10.85;;;5.63;;
54613;SDS011;40514;52.758;6.360;2022-08-20T01:51:08;10.20;;;6.07;;
54613;SDS011;40514;52.758;6.360;2022-08-20T01:53:42;11.07;;;5.57;;
54613;SDS011;40514;52.758;6.360;2022-08-20T01:56:24;14.15;;;5.72;;
54613;SDS011;40514;52.758;6.360;2022-08-20T01:58:53;13.10;;;6.40;;
54613;SDS011;40514;52.758;6.360;2022-08-20T02:01:31;12.43;;;5.57;;
54613;SDS011;40514;52.758;6.360;2022-08-20T02:04:05;8.07;;;5.60;;
54613;SDS011;40514;52.758;6.360;2022-08-20T02:06:34;9.02;;;6.03;;
54613;SDS011;40514;52.758;6.360;2022-08-20T02:09:06;11.27;;;5.47;;
54613;SDS011;40514;52.758;6.360;2022-08-20T02:11:33;8.77;;;5.70;;
54613;SDS011;40514;52.758;6.360;2022-08-20T02:14:00;11.57;;;5.70;;
54613;SDS011;40514;52.758;6.360;2022-08-20T02:16:31;12.65;;;6.20;;
54613;SDS011;40514;52.758;6.360;2022-08-20T02:19:03;11.25;;;5.70;;
54613;SDS011;40514;52.758;6.360;2022-08-20T02:21:40;10.23;;;5.60;;
54613;SDS011;40514;52.758;6.360;2022-08-20T02:24:10;9.73;;;5.60;;
54613;SDS011;40514;52.758;6.360;2022-08-20T02:29:03;10.18;;;5.90;;
54613;SDS011;40514;52.758;6.360;2022-08-20T02:31:31;12.43;;;5.65;;
54613;SDS011;40514;52.758;6.360;2022-08-20T02:33:56;6.82;;;5.10;;
54613;SDS011;40514;52.758;6.360;2022-08-20T02:36:22;12.00;;;6.00;;
54613;SDS011;40514;52.758;6.360;2022-08-20T02:38:47;9.57;;;5.78;;
54613;SDS011;40514;52.758;6.360;2022-08-20T02:41:13;9.70;;;5.75;;
54613;SDS011;40514;52.758;6.360;2022-08-20T02:43:39;11.27;;;5.82;;
54613;SDS011;40514;52.758;6.360;2022-08-20T02:46:05;15.60;;;6.37;;
54613;SDS011;40514;52.758;6.360;2022-08-20T02:50:58;10.75;;;6.18;;
54613;SDS011;40514;52.758;6.360;2022-08-20T02:53:27;10.48;;;6.03;;
54613;SDS011;40514;52.758;6.360;2022-08-20T02:55:54;8.65;;;5.72;;
54613;SDS011;40514;52.758;6.360;2022-08-20T03:00:46;8.60;;;5.70;;
54613;SDS011;40514;52.758;6.360;2022-08-20T03:03:12;11.98;;;6.50;;
54613;SDS011;40514;52.758;6.360;2022-08-20T03:05:40;9.40;;;5.80;;
54613;SDS011;40514;52.758;6.360;2022-08-20T03:08:08;9.07;;;5.90;;
54613;SDS011;40514;52.758;6.360;2022-08-20T03:10:36;9.15;;;5.93;;
54613;SDS011;40514;52.758;6.360;2022-08-20T03:13:02;12.77;;;6.07;;
54613;SDS011;40514;52.758;6.360;2022-08-20T03:15:29;11.35;;;6.15;;
54613;SDS011;40514;52.758;6.360;2022-08-20T03:17:56;12.82;;;6.25;;
54613;SDS011;40514;52.758;6.360;2022-08-20T03:20:22;9.98;;;6.13;;
54613;SDS011;40514;52.758;6.360;2022-08-20T03:22:48;8.43;;;5.47;;
54613;SDS011;40514;52.758;6.360;2022-08-20T03:25:14;13.13;;;6.40;;
54613;SDS011;40514;52.758;6.360;2022-08-20T03:30:07;10.25;;;5.88;;
54613;SDS011;40514;52.758;6.360;2022-08-20T03:32:34;10.18;;;5.88;;
54613;SDS011;40514;52.758;6.360;2022-08-20T03:35:01;8.40;;;6.05;;
54613;SDS011;40514;52.758;6.360;2022-08-20T03:37:31;11.02;;;6.32;;
54613;SDS011;40514;52.758;6.360;2022-08-20T03:39:58;11.20;;;5.97;;
54613;SDS011;40514;52.758;6.360;2022-08-20T03:42:24;10.40;;;5.70;;
54613;SDS011;40514;52.758;6.360;2022-08-20T03:44:49;10.88;;;6.43;;
54613;SDS011;40514;52.758;6.360;2022-08-20T03:47:15;9.52;;;6.18;;
54613;SDS011;40514;52.758;6.360;2022-08-20T03:49:41;9.63;;;5.82;;
54613;SDS011;40514;52.758;6.360;2022-08-20T03:52:06;10.63;;;6.50;;
54613;SDS011;40514;52.758;6.360;2022-08-20T03:54:32;10.32;;;6.05;;
54613;SDS011;40514;52.758;6.360;2022-08-20T03:56:59;12.67;;;6.17;;
54613;SDS011;40514;52.758;6.360;2022-08-20T03:59:26;13.20;;;6.18;;
54613;SDS011;40514;52.758;6.360;2022-08-20T04:01:52;11.90;;;5.97;;
54613;SDS011;40514;52.758;6.360;2022-08-20T04:04:19;13.15;;;5.75;;
54613;SDS011;40514;52.758;6.360;2022-08-20T04:06:45;11.30;;;6.40;;
54613;SDS011;40514;52.758;6.360;2022-08-20T04:09:11;10.85;;;5.50;;
54613;SDS011;40514;52.758;6.360;2022-08-20T04:11:38;11.52;;;5.93;;
54613;SDS011;40514;52.758;6.360;2022-08-20T04:14:04;9.95;;;5.80;;
54613;SDS011;40514;52.758;6.360;2022-08-20T04:16:30;11.03;;;5.67;;
54613;SDS011;40514;52.758;6.360;2022-08-20T04:19:07;10.63;;;5.88;;
54613;SDS011;40514;52.758;6.360;2022-08-20T04:21:33;10.43;;;5.80;;
54613;SDS011;40514;52.758;6.360;2022-08-20T04:24:00;11.63;;;5.13;;
54613;SDS011;40514;52.758;6.360;2022-08-20T04:28:52;11.48;;;5.43;;
54613;SDS011;40514;52.758;6.360;2022-08-20T04:31:19;9.70;;;5.10;;
54613;SDS011;40514;52.758;6.360;2022-08-20T04:33:45;8.52;;;5.20;;
54613;SDS011;40514;52.758;6.360;2022-08-20T04:36:10;12.00;;;5.50;;
54613;SDS011;40514;52.758;6.360;2022-08-20T04:38:38;9.75;;;5.13;;
54613;SDS011;40514;52.758;6.360;2022-08-20T04:41:04;12.00;;;5.95;;
54613;SDS011;40514;52.758;6.360;2022-08-20T04:43:31;11.17;;;5.47;;
54613;SDS011;40514;52.758;6.360;2022-08-20T04:45:59;11.55;;;5.55;;
54613;SDS011;40514;52.758;6.360;2022-08-20T04:48:27;11.00;;;5.18;;
54613;SDS011;40514;52.758;6.360;2022-08-20T04:53:20;11.00;;;5.75;;
54613;SDS011;40514;52.758;6.360;2022-08-20T04:55:48;9.82;;;5.25;;
54613;SDS011;40514;52.758;6.360;2022-08-20T04:58:15;10.55;;;5.18;;
54613;SDS011;40514;52.758;6.360;2022-08-20T05:00:44;11.00;;;5.40;;
54613;SDS011;40514;52.758;6.360;2022-08-20T05:03:12;12.18;;;5.13;;
54613;SDS011;40514;52.758;6.360;2022-08-20T05:05:38;13.63;;;5.30;;
54613;SDS011;40514;52.758;6.360;2022-08-20T05:08:03;13.00;;;5.37;;
54613;SDS011;40514;52.758;6.360;2022-08-20T05:10:29;11.48;;;5.35;;
54613;SDS011;40514;52.758;6.360;2022-08-20T05:12:55;11.20;;;5.38;;
54613;SDS011;40514;52.758;6.360;2022-08-20T05:15:21;10.63;;;4.95;;
54613;SDS011;40514;52.758;6.360;2022-08-20T05:17:52;10.55;;;5.35;;
54613;SDS011;40514;52.758;6.360;2022-08-20T05:20:20;9.88;;;5.30;;
54613;SDS011;40514;52.758;6.360;2022-08-20T05:22:46;9.18;;;5.43;;
54613;SDS011;40514;52.758;6.360;2022-08-20T05:25:12;10.33;;;5.43;;
54613;SDS011;40514;52.758;6.360;2022-08-20T05:30:07;11.80;;;5.50;;
54613;SDS011;40514;52.758;6.360;2022-08-20T05:32:35;9.02;;;5.32;;
54613;SDS011;40514;52.758;6.360;2022-08-20T05:35:02;10.88;;;4.88;;
54613;SDS011;40514;52.758;6.360;2022-08-20T05:37:29;8.77;;;5.00;;
54613;SDS011;40514;52.758;6.360;2022-08-20T05:39:55;7.75;;;4.63;;
54613;SDS011;40514;52.758;6.360;2022-08-20T05:42:21;8.15;;;4.85;;
54613;SDS011;40514;52.758;6.360;2022-08-20T05:44:47;7.85;;;4.82;;
54613;SDS011;40514;52.758;6.360;2022-08-20T05:47:12;10.57;;;5.10;;
54613;SDS011;40514;52.758;6.360;2022-08-20T05:49:38;9.32;;;5.10;;
54613;SDS011;40514;52.758;6.360;2022-08-20T05:52:04;10.98;;;5.18;;
54613;SDS011;40514;52.758;6.360;2022-08-20T05:54:30;10.25;;;5.28;;
54613;SDS011;40514;52.758;6.360;2022-08-20T05:56:56;10.70;;;5.13;;
54613;SDS011;40514;52.758;6.360;2022-08-20T05:59:22;10.70;;;5.77;;
54613;SDS011;40514;52.758;6.360;2022-08-20T06:04:13;10.32;;;5.15;;
54613;SDS011;40514;52.758;6.360;2022-08-20T06:06:48;11.55;;;4.93;;
54613;SDS011;40514;52.758;6.360;2022-08-20T06:09:16;12.13;;;4.93;;
54613;SDS011;40514;52.758;6.360;2022-08-20T06:11:46;8.35;;;3.78;;
54613;SDS011;40514;52.758;6.360;2022-08-20T06:14:11;8.47;;;3.90;;
54613;SDS011;40514;52.758;6.360;2022-08-20T06:16:37;11.40;;;4.10;;
54613;SDS011;40514;52.758;6.360;2022-08-20T06:19:04;10.57;;;3.95;;
54613;SDS011;40514;52.758;6.360;2022-08-20T06:21:29;9.70;;;4.18;;
54613;SDS011;40514;52.758;6.360;2022-08-20T06:23:55;9.25;;;4.40;;
54613;SDS011;40514;52.758;6.360;2022-08-20T06:26:21;9.52;;;4.15;;
54613;SDS011;40514;52.758;6.360;2022-08-20T06:28:47;10.90;;;4.30;;
54613;SDS011;40514;52.758;6.360;2022-08-20T06:31:13;10.73;;;3.70;;
54613;SDS011;40514;52.758;6.360;2022-08-20T06:33:38;9.20;;;3.57;;
54613;SDS011;40514;52.758;6.360;2022-08-20T06:36:04;11.83;;;4.13;;
54613;SDS011;40514;52.758;6.360;2022-08-20T06:38:31;11.73;;;3.80;;
54613;SDS011;40514;52.758;6.360;2022-08-20T06:40:56;6.97;;;3.35;;
54613;SDS011;40514;52.758;6.360;2022-08-20T06:43:22;8.07;;;3.03;;
54613;SDS011;40514;52.758;6.360;2022-08-20T06:45:48;7.00;;;3.00;;
54613;SDS011;40514;52.758;6.360;2022-08-20T06:48:13;9.50;;;2.70;;
54613;SDS011;40514;52.758;6.360;2022-08-20T06:50:42;9.85;;;2.80;;
54613;SDS011;40514;52.758;6.360;2022-08-20T06:53:12;7.60;;;2.70;;
54613;SDS011;40514;52.758;6.360;2022-08-20T06:55:40;7.53;;;2.60;;
54613;SDS011;40514;52.758;6.360;2022-08-20T06:58:10;6.18;;;2.60;;
54613;SDS011;40514;52.758;6.360;2022-08-20T07:00:38;9.98;;;3.10;;
54613;SDS011;40514;52.758;6.360;2022-08-20T07:03:06;9.07;;;3.33;;
54613;SDS011;40514;52.758;6.360;2022-08-20T07:05:33;8.73;;;3.00;;
54613;SDS011;40514;52.758;6.360;2022-08-20T07:08:01;7.32;;;2.80;;
54613;SDS011;40514;52.758;6.360;2022-08-20T07:10:28;6.25;;;2.35;;
54613;SDS011;40514;52.758;6.360;2022-08-20T07:12:55;6.75;;;2.40;;
54613;SDS011;40514;52.758;6.360;2022-08-20T07:15:21;6.75;;;2.60;;
54613;SDS011;40514;52.758;6.360;2022-08-20T07:17:51;6.45;;;2.67;;
54613;SDS011;40514;52.758;6.360;2022-08-20T07:20:18;9.52;;;2.80;;
54613;SDS011;40514;52.758;6.360;2022-08-20T07:22:45;10.40;;;2.38;;
54613;SDS011;40514;52.758;6.360;2022-08-20T07:25:11;5.80;;;2.00;;
54613;SDS011;40514;52.758;6.360;2022-08-20T07:27:40;5.00;;;1.90;;
54613;SDS011;40514;52.758;6.360;2022-08-20T07:30:07;6.22;;;2.38;;
54613;SDS011;40514;52.758;6.360;2022-08-20T07:32:53;7.32;;;1.92;;
54613;SDS011;40514;52.758;6.360;2022-08-20T07:35:19;5.87;;;1.97;;
54613;SDS011;40514;52.758;6.360;2022-08-20T07:37:46;8.02;;;2.60;;
54613;SDS011;40514;52.758;6.360;2022-08-20T07:40:18;8.95;;;2.17;;
54613;SDS011;40514;52.758;6.360;2022-08-20T07:42:52;6.55;;;1.90;;
54613;SDS011;40514;52.758;6.360;2022-08-20T07:45:19;5.30;;;1.90;;
54613;SDS011;40514;52.758;6.360;2022-08-20T07:47:45;4.18;;;1.60;;
54613;SDS011;40514;52.758;6.360;2022-08-20T07:50:13;5.95;;;1.80;;
54613;SDS011;40514;52.758;6.360;2022-08-20T07:52:40;6.43;;;1.70;;
54613;SDS011;40514;52.758;6.360;2022-08-20T07:55:07;4.43;;;1.50;;
54613;SDS011;40514;52.758;6.360;2022-08-20T07:57:35;9.13;;;2.00;;
54613;SDS011;40514;52.758;6.360;2022-08-20T08:00:03;8.07;;;2.35;;
54613;SDS011;40514;52.758;6.360;2022-08-20T08:02:32;4.50;;;1.70;;
54613;SDS011;40514;52.758;6.360;2022-08-20T08:05:00;3.88;;;1.45;;
54613;SDS011;40514;52.758;6.360;2022-08-20T08:07:27;5.78;;;1.60;;
54613;SDS011;40514;52.758;6.360;2022-08-20T08:09:53;4.80;;;1.50;;
54613;SDS011;40514;52.758;6.360;2022-08-20T08:12:20;5.82;;;1.50;;
54613;SDS011;40514;52.758;6.360;2022-08-20T08:14:46;7.75;;;1.60;;
54613;SDS011;40514;52.758;6.360;2022-08-20T08:17:13;6.07;;;1.60;;
54613;SDS011;40514;52.758;6.360;2022-08-20T08:19:41;3.85;;;1.50;;
54613;SDS011;40514;52.758;6.360;2022-08-20T08:22:11;6.55;;;1.95;;
54613;SDS011;40514;52.758;6.360;2022-08-20T08:24:40;5.25;;;1.60;;
54613;SDS011;40514;52.758;6.360;2022-08-20T08:27:07;6.47;;;1.95;;
54613;SDS011;40514;52.758;6.360;2022-08-20T08:29:34;6.10;;;1.60;;
54613;SDS011;40514;52.758;6.360;2022-08-20T08:32:00;5.70;;;1.52;;
54613;SDS011;40514;52.758;6.360;2022-08-20T08:34:29;7.63;;;1.75;;
54613;SDS011;40514;52.758;6.360;2022-08-20T08:36:55;7.03;;;1.90;;
54613;SDS011;40514;52.758;6.360;2022-08-20T08:39:22;7.28;;;1.70;;
54613;SDS011;40514;52.758;6.360;2022-08-20T08:44:25;5.10;;;1.30;;
54613;SDS011;40514;52.758;6.360;2022-08-20T08:46:53;5.25;;;1.45;;
54613;SDS011;40514;52.758;6.360;2022-08-20T08:49:25;6.65;;;1.40;;
54613;SDS011;40514;52.758;6.360;2022-08-20T08:51:56;5.68;;;1.60;;
54613;SDS011;40514;52.758;6.360;2022-08-20T08:54:27;4.35;;;1.38;;
54613;SDS011;40514;52.758;6.360;2022-08-20T08:56:55;4.72;;;1.70;;
54613;SDS011;40514;52.758;6.360;2022-08-20T08:59:23;5.43;;;1.63;;
54613;SDS011;40514;52.758;6.360;2022-08-20T09:01:53;5.25;;;1.70;;
54613;SDS011;40514;52.758;6.360;2022-08-20T09:04:21;4.85;;;1.40;;
54613;SDS011;40514;52.758;6.360;2022-08-20T09:06:48;5.97;;;1.50;;
54613;SDS011;40514;52.758;6.360;2022-08-20T09:09:24;4.68;;;1.40;;
54613;SDS011;40514;52.758;6.360;2022-08-20T09:11:54;4.50;;;1.35;;
54613;SDS011;40514;52.758;6.360;2022-08-20T09:14:25;8.05;;;1.90;;
54613;SDS011;40514;52.758;6.360;2022-08-20T09:16:51;5.90;;;1.50;;
54613;SDS011;40514;52.758;6.360;2022-08-20T09:19:16;5.55;;;1.50;;
54613;SDS011;40514;52.758;6.360;2022-08-20T09:21:42;5.10;;;1.40;;
54613;SDS011;40514;52.758;6.360;2022-08-20T09:24:08;6.03;;;1.40;;
54613;SDS011;40514;52.758;6.360;2022-08-20T09:26:33;4.78;;;1.65;;
54613;SDS011;40514;52.758;6.360;2022-08-20T09:31:25;4.40;;;1.17;;
54613;SDS011;40514;52.758;6.360;2022-08-20T09:36:16;6.78;;;1.42;;
54613;SDS011;40514;52.758;6.360;2022-08-20T09:38:42;8.00;;;1.60;;
54613;SDS011;40514;52.758;6.360;2022-08-20T09:41:07;6.97;;;1.40;;
54613;SDS011;40514;52.758;6.360;2022-08-20T09:43:33;2.90;;;1.10;;
54613;SDS011;40514;52.758;6.360;2022-08-20T09:45:58;3.80;;;1.30;;
54613;SDS011;40514;52.758;6.360;2022-08-20T09:48:24;5.55;;;1.60;;
54613;SDS011;40514;52.758;6.360;2022-08-20T09:50:49;3.53;;;1.15;;
54613;SDS011;40514;52.758;6.360;2022-08-20T09:53:16;5.95;;;1.45;;
54613;SDS011;40514;52.758;6.360;2022-08-20T09:55:44;5.18;;;1.27;;
54613;SDS011;40514;52.758;6.360;2022-08-20T10:00:57;4.43;;;1.23;;
54613;SDS011;40514;52.758;6.360;2022-08-20T10:03:25;6.05;;;1.30;;
54613;SDS011;40514;52.758;6.360;2022-08-20T10:05:50;4.95;;;1.45;;
54613;SDS011;40514;52.758;6.360;2022-08-20T10:08:16;4.25;;;1.40;;
54613;SDS011;40514;52.758;6.360;2022-08-20T10:10:42;3.28;;;1.20;;
54613;SDS011;40514;52.758;6.360;2022-08-20T10:13:07;6.13;;;1.60;;
54613;SDS011;40514;52.758;6.360;2022-08-20T10:15:33;5.85;;;1.55;;
54613;SDS011;40514;52.758;6.360;2022-08-20T10:18:01;6.38;;;1.40;;
54613;SDS011;40514;52.758;6.360;2022-08-20T10:20:29;6.30;;;1.73;;
54613;SDS011;40514;52.758;6.360;2022-08-20T10:22:55;6.20;;;1.52;;
54613;SDS011;40514;52.758;6.360;2022-08-20T10:25:20;4.65;;;1.27;;
54613;SDS011;40514;52.758;6.360;2022-08-20T10:27:46;4.68;;;1.25;;
54613;SDS011;40514;52.758;6.360;2022-08-20T10:30:11;5.03;;;1.60;;
54613;SDS011;40514;52.758;6.360;2022-08-20T10:32:37;3.78;;;1.25;;
54613;SDS011;40514;52.758;6.360;2022-08-20T10:35:03;5.63;;;1.60;;
54613;SDS011;40514;52.758;6.360;2022-08-20T10:37:29;4.03;;;1.40;;
54613;SDS011;40514;52.758;6.360;2022-08-20T10:39:55;6.07;;;1.73;;
54613;SDS011;40514;52.758;6.360;2022-08-20T10:42:21;5.18;;;1.35;;
54613;SDS011;40514;52.758;6.360;2022-08-20T10:44:47;4.32;;;1.40;;
54613;SDS011;40514;52.758;6.360;2022-08-20T10:47:16;4.50;;;1.40;;
54613;SDS011;40514;52.758;6.360;2022-08-20T10:49:45;4.45;;;1.45;;
54613;SDS011;40514;52.758;6.360;2022-08-20T10:52:12;5.05;;;1.58;;
54613;SDS011;40514;52.758;6.360;2022-08-20T10:54:37;5.78;;;1.55;;
54613;SDS011;40514;52.758;6.360;2022-08-20T10:57:07;4.00;;;1.30;;
54613;SDS011;40514;52.758;6.360;2022-08-20T10:59:54;4.65;;;1.50;;
54613;SDS011;40514;52.758;6.360;2022-08-20T11:02:29;4.30;;;1.20;;
54613;SDS011;40514;52.758;6.360;2022-08-20T11:04:54;4.22;;;1.30;;
54613;SDS011;40514;52.758;6.360;2022-08-20T11:07:31;5.03;;;1.40;;
54613;SDS011;40514;52.758;6.360;2022-08-20T11:09:58;5.43;;;1.50;;
54613;SDS011;40514;52.758;6.360;2022-08-20T11:12:24;6.20;;;1.40;;
54613;SDS011;40514;52.758;6.360;2022-08-20T11:14:50;5.13;;;1.58;;
54613;SDS011;40514;52.758;6.360;2022-08-20T11:17:27;4.88;;;1.40;;
54613;SDS011;40514;52.758;6.360;2022-08-20T11:19:55;3.67;;;1.23;;
54613;SDS011;40514;52.758;6.360;2022-08-20T11:22:21;5.35;;;1.42;;
54613;SDS011;40514;52.758;6.360;2022-08-20T11:24:48;5.38;;;1.60;;
54613;SDS011;40514;52.758;6.360;2022-08-20T11:27:15;2.92;;;1.20;;
54613;SDS011;40514;52.758;6.360;2022-08-20T11:29:49;5.60;;;1.55;;
54613;SDS011;40514;52.758;6.360;2022-08-20T11:32:15;7.72;;;1.92;;
54613;SDS011;40514;52.758;6.360;2022-08-20T11:34:41;4.57;;;1.40;;
54613;SDS011;40514;52.758;6.360;2022-08-20T11:37:07;6.85;;;1.52;;
54613;SDS011;40514;52.758;6.360;2022-08-20T11:39:32;5.65;;;1.52;;
54613;SDS011;40514;52.758;6.360;2022-08-20T11:41:58;4.32;;;1.45;;
54613;SDS011;40514;52.758;6.360;2022-08-20T11:44:25;5.63;;;1.42;;
54613;SDS011;40514;52.758;6.360;2022-08-20T11:46:51;4.70;;;1.80;;
54613;SDS011;40514;52.758;6.360;2022-08-20T11:49:16;4.78;;;1.30;;
54613;SDS011;40514;52.758;6.360;2022-08-20T11:51:42;6.03;;;1.70;;
54613;SDS011;40514;52.758;6.360;2022-08-20T11:54:07;4.65;;;1.55;;
54613;SDS011;40514;52.758;6.360;2022-08-20T11:58:58;4.30;;;1.60;;
54613;SDS011;40514;52.758;6.360;2022-08-20T12:01:24;6.05;;;1.70;;
54613;SDS011;40514;52.758;6.360;2022-08-20T12:03:49;5.43;;;1.63;;
54613;SDS011;40514;52.758;6.360;2022-08-20T12:06:15;5.82;;;1.95;;
54613;SDS011;40514;52.758;6.360;2022-08-20T12:08:41;5.45;;;1.70;;
54613;SDS011;40514;52.758;6.360;2022-08-20T12:11:07;5.80;;;1.80;;
54613;SDS011;40514;52.758;6.360;2022-08-20T12:13:33;5.95;;;1.73;;
54613;SDS011;40514;52.758;6.360;2022-08-20T12:16:00;5.43;;;1.70;;
54613;SDS011;40514;52.758;6.360;2022-08-20T12:18:26;4.97;;;1.65;;
54613;SDS011;40514;52.758;6.360;2022-08-20T12:20:52;4.38;;;1.40;;
54613;SDS011;40514;52.758;6.360;2022-08-20T12:23:18;6.25;;;1.60;;
54613;SDS011;40514;52.758;6.360;2022-08-20T12:28:10;6.88;;;1.73;;
54613;SDS011;40514;52.758;6.360;2022-08-20T12:30:37;5.40;;;1.95;;
54613;SDS011;40514;52.758;6.360;2022-08-20T12:33:03;4.20;;;1.60;;
54613;SDS011;40514;52.758;6.360;2022-08-20T12:35:28;6.03;;;1.77;;
54613;SDS011;40514;52.758;6.360;2022-08-20T12:37:54;4.63;;;1.70;;
54613;SDS011;40514;52.758;6.360;2022-08-20T12:40:23;6.32;;;1.83;;
54613;SDS011;40514;52.758;6.360;2022-08-20T12:42:50;5.35;;;1.50;;
54613;SDS011;40514;52.758;6.360;2022-08-20T12:45:16;4.93;;;1.42;;
54613;SDS011;40514;52.758;6.360;2022-08-20T12:47:43;3.80;;;1.38;;
54613;SDS011;40514;52.758;6.360;2022-08-20T12:50:12;2.72;;;1.08;;
54613;SDS011;40514;52.758;6.360;2022-08-20T12:52:40;4.20;;;1.33;;
54613;SDS011;40514;52.758;6.360;2022-08-20T12:55:07;4.25;;;1.30;;
54613;SDS011;40514;52.758;6.360;2022-08-20T12:57:35;4.43;;;1.50;;
54613;SDS011;40514;52.758;6.360;2022-08-20T13:02:33;3.70;;;1.40;;
54613;SDS011;40514;52.758;6.360;2022-08-20T13:04:58;3.40;;;1.40;;
54613;SDS011;40514;52.758;6.360;2022-08-20T13:09:50;3.63;;;1.25;;
54613;SDS011;40514;52.758;6.360;2022-08-20T13:12:15;4.80;;;1.45;;
54613;SDS011;40514;52.758;6.360;2022-08-20T13:14:41;5.72;;;1.92;;
54613;SDS011;40514;52.758;6.360;2022-08-20T13:19:34;5.43;;;1.55;;
54613;SDS011;40514;52.758;6.360;2022-08-20T13:22:01;5.90;;;1.50;;
54613;SDS011;40514;52.758;6.360;2022-08-20T13:24:27;4.32;;;1.50;;
54613;SDS011;40514;52.758;6.360;2022-08-20T13:26:53;5.15;;;1.48;;
54613;SDS011;40514;52.758;6.360;2022-08-20T13:31:44;4.07;;;1.60;;
54613;SDS011;40514;52.758;6.360;2022-08-20T13:34:10;4.15;;;1.55;;
54613;SDS011;40514;52.758;6.360;2022-08-20T13:36:36;5.38;;;1.70;;
54613;SDS011;40514;52.758;6.360;2022-08-20T13:39:03;6.07;;;1.67;;
54613;SDS011;40514;52.758;6.360;2022-08-20T13:41:30;4.40;;;1.38;;
54613;SDS011;40514;52.758;6.360;2022-08-20T13:43:55;5.47;;;1.63;;
54613;SDS011;40514;52.758;6.360;2022-08-20T13:48:46;5.15;;;1.80;;
54613;SDS011;40514;52.758;6.360;2022-08-20T13:53:37;6.05;;;1.77;;
54613;SDS011;40514;52.758;6.360;2022-08-20T13:58:28;6.03;;;1.95;;
54613;SDS011;40514;52.758;6.360;2022-08-20T14:03:19;6.45;;;1.55;;
54613;SDS011;40514;52.758;6.360;2022-08-20T14:08:13;5.85;;;1.63;;
54613;SDS011;40514;52.758;6.360;2022-08-20T14:10:41;6.47;;;1.75;;
54613;SDS011;40514;52.758;6.360;2022-08-20T14:13:07;4.72;;;1.70;;
54613;SDS011;40514;52.758;6.360;2022-08-20T14:17:58;6.32;;;2.00;;
54613;SDS011;40514;52.758;6.360;2022-08-20T14:22:51;8.65;;;2.10;;
54613;SDS011;40514;52.758;6.360;2022-08-20T14:27:44;6.15;;;1.70;;
54613;SDS011;40514;52.758;6.360;2022-08-20T14:32:38;5.50;;;1.60;;
54613;SDS011;40514;52.758;6.360;2022-08-20T14:37:31;8.07;;;1.75;;
54613;SDS011;40514;52.758;6.360;2022-08-20T14:39:59;3.78;;;1.50;;
54613;SDS011;40514;52.758;6.360;2022-08-20T14:42:26;9.45;;;2.55;;
54613;SDS011;40514;52.758;6.360;2022-08-20T14:44:54;6.30;;;1.70;;
54613;SDS011;40514;52.758;6.360;2022-08-20T14:47:22;4.75;;;1.85;;
54613;SDS011;40514;52.758;6.360;2022-08-20T14:49:50;4.57;;;1.80;;
54613;SDS011;40514;52.758;6.360;2022-08-20T14:52:17;5.57;;;1.90;;
54613;SDS011;40514;52.758;6.360;2022-08-20T14:54:44;7.93;;;1.95;;
54613;SDS011;40514;52.758;6.360;2022-08-20T14:59:36;5.43;;;1.75;;
54613;SDS011;40514;52.758;6.360;2022-08-20T15:04:28;4.97;;;1.63;;
54613;SDS011;40514;52.758;6.360;2022-08-20T15:06:55;7.03;;;1.90;;
54613;SDS011;40514;52.758;6.360;2022-08-20T15:11:46;5.47;;;1.85;;
54613;SDS011;40514;52.758;6.360;2022-08-20T15:14:21;9.88;;;1.80;;
54613;SDS011;40514;52.758;6.360;2022-08-20T15:16:47;8.82;;;2.13;;
54613;SDS011;40514;52.758;6.360;2022-08-20T15:21:38;8.80;;;2.33;;
54613;SDS011;40514;52.758;6.360;2022-08-20T15:26:29;5.97;;;2.10;;
54613;SDS011;40514;52.758;6.360;2022-08-20T15:28:54;5.82;;;2.20;;
54613;SDS011;40514;52.758;6.360;2022-08-20T15:31:20;5.43;;;1.75;;
54613;SDS011;40514;52.758;6.360;2022-08-20T15:36:11;8.73;;;2.20;;
54613;SDS011;40514;52.758;6.360;2022-08-20T15:38:37;7.05;;;2.25;;
54613;SDS011;40514;52.758;6.360;2022-08-20T15:41:03;8.23;;;2.10;;
54613;SDS011;40514;52.758;6.360;2022-08-20T15:43:29;8.32;;;2.10;;
54613;SDS011;40514;52.758;6.360;2022-08-20T15:45:56;7.97;;;1.90;;
54613;SDS011;40514;52.758;6.360;2022-08-20T15:48:29;8.15;;;2.28;;
54613;SDS011;40514;52.758;6.360;2022-08-20T15:51:20;8.25;;;2.22;;
54613;SDS011;40514;52.758;6.360;2022-08-20T15:54:05;5.97;;;2.00;;
54613;SDS011;40514;52.758;6.360;2022-08-20T15:56:49;5.50;;;2.03;;
54613;SDS011;40514;52.758;6.360;2022-08-20T16:02:34;6.63;;;2.30;;
54613;SDS011;40514;52.758;6.360;2022-08-20T16:05:40;5.97;;;2.20;;
54613;SDS011;40514;52.758;6.360;2022-08-20T16:08:32;5.15;;;1.83;;
54613;SDS011;40514;52.758;6.360;2022-08-20T16:13:38;6.22;;;2.05;;
54613;SDS011;40514;52.758;6.360;2022-08-20T16:16:15;7.47;;;2.15;;
54613;SDS011;40514;52.758;6.360;2022-08-20T16:18:49;7.35;;;1.92;;
54613;SDS011;40514;52.758;6.360;2022-08-20T16:21:18;7.50;;;2.10;;
54613;SDS011;40514;52.758;6.360;2022-08-20T16:23:49;9.75;;;2.42;;
54613;SDS011;40514;52.758;6.360;2022-08-20T16:32:13;7.45;;;2.10;;
54613;SDS011;40514;52.758;6.360;2022-08-20T16:34:50;8.05;;;2.10;;
54613;SDS011;40514;52.758;6.360;2022-08-20T16:37:26;8.10;;;1.90;;